createdAt,value
2018-04-12T07:46:34.451Z,275.63
2018-04-12T07:47:34.771Z,281.25
2018-04-12T07:48:35.155Z,292.50
2018-04-12T07:49:34.335Z,343.13
2018-04-12T07:50:34.330Z,315.00
2018-04-12T07:51:34.813Z,320.63
2018-04-12T07:52:34.261Z,270.00
2018-04-12T07:53:34.240Z,337.50
2018-04-12T07:54:34.258Z,348.75
2018-04-12T07:55:34.244Z,303.75
2018-04-12T07:56:34.261Z,275.63
2018-04-12T07:57:34.293Z,208.13
2018-04-12T07:58:34.251Z,253.13
2018-04-12T07:59:34.256Z,253.13
2018-04-12T08:00:34.260Z,292.50
2018-04-12T08:01:34.261Z,270.00
2018-04-12T08:02:34.254Z,309.38
2018-04-12T08:03:34.285Z,258.75
2018-04-12T08:04:34.264Z,298.13
2018-04-12T08:05:34.270Z,298.13
2018-04-12T08:06:35.162Z,281.25
2018-04-12T08:07:34.315Z,326.25
2018-04-12T08:08:34.319Z,365.63
2018-04-12T08:09:34.295Z,281.25
2018-04-12T08:10:34.340Z,320.63
2018-04-12T08:11:34.315Z,292.50
2018-04-12T08:14:54.404Z,253.13
2018-04-12T08:15:44.688Z,236.25
2018-04-12T08:16:54.096Z,275.63
2018-04-12T08:18:38.108Z,275.63
2018-04-12T08:19:38.064Z,281.25
2018-04-12T08:20:38.061Z,326.25
2018-04-12T08:21:38.043Z,348.75
2018-04-12T08:22:38.065Z,348.75
2018-04-12T08:23:38.067Z,427.50
2018-04-12T08:24:38.077Z,410.63
2018-04-12T08:25:38.062Z,376.88
2018-04-12T08:26:38.058Z,303.75
2018-04-12T08:27:38.085Z,360.00
2018-04-12T08:28:38.068Z,303.75
2018-04-12T08:29:38.091Z,315.00
2018-04-12T08:30:38.126Z,405.00
2018-04-12T08:31:38.087Z,433.13
2018-04-12T08:32:39.034Z,382.50
2018-04-12T08:33:38.078Z,371.25
2018-04-12T08:34:38.110Z,427.50
2018-04-12T08:35:39.033Z,410.63
2018-04-12T08:36:38.089Z,427.50
2018-04-12T08:37:38.113Z,455.63
2018-04-12T08:38:38.105Z,466.88
2018-04-12T08:39:38.134Z,433.13
2018-04-12T08:40:38.124Z,376.88
2018-04-12T08:41:38.133Z,337.50
2018-04-12T08:42:38.110Z,303.75
2018-04-12T08:43:39.042Z,286.88
2018-04-12T08:44:38.116Z,264.38
2018-04-12T08:45:38.132Z,236.25
2018-04-12T08:46:38.136Z,219.38
2018-04-12T08:47:38.141Z,196.88
2018-04-12T08:48:38.142Z,191.25
2018-04-12T08:49:38.129Z,185.63
2018-04-12T08:50:38.146Z,180.00
2018-04-12T08:51:38.150Z,180.00
2018-04-12T08:52:39.039Z,185.63
2018-04-12T08:53:38.150Z,191.25
2018-04-12T08:54:38.138Z,191.25
2018-04-12T08:55:38.186Z,196.88
2018-04-12T08:56:38.192Z,191.25
2018-04-12T08:57:38.161Z,185.63
2018-04-12T08:58:38.159Z,185.63
2018-04-12T08:59:38.176Z,185.63
2018-04-12T09:00:38.228Z,185.63
2018-04-12T09:01:38.169Z,191.25
2018-04-12T09:02:38.280Z,196.88
2018-04-12T09:03:38.175Z,202.50
2018-04-12T09:04:38.175Z,208.13
2018-04-12T09:05:38.180Z,208.13
2018-04-12T09:06:38.188Z,213.75
2018-04-12T09:07:39.543Z,225.00
2018-04-12T09:08:38.186Z,236.25
2018-04-12T09:09:38.216Z,253.13
2018-04-12T09:10:38.197Z,275.63
2018-04-12T09:11:38.202Z,331.88
2018-04-12T09:12:38.199Z,371.25
2018-04-12T09:13:38.211Z,410.63
2018-04-12T09:14:38.244Z,455.63
2018-04-12T09:15:38.232Z,500.63
2018-04-12T09:16:38.228Z,399.38
2018-04-12T09:17:38.216Z,360.00
2018-04-12T09:18:38.235Z,331.88
2018-04-12T09:19:38.293Z,309.38
2018-04-12T09:20:38.232Z,292.50
2018-04-12T09:21:38.222Z,303.75
2018-04-12T09:22:38.224Z,438.75
2018-04-12T09:23:39.051Z,1040.63
2018-04-12T09:24:38.229Z,1096.88
2018-04-12T09:25:38.303Z,1186.88
2018-04-12T09:26:38.231Z,1271.25
2018-04-12T09:27:38.248Z,1625.63
2018-04-12T09:28:38.244Z,1648.13
2018-04-12T09:29:38.287Z,1805.63
2018-04-12T09:30:38.248Z,1462.50
2018-04-12T09:31:38.274Z,1395.00
2018-04-12T09:32:38.304Z,1597.50
2018-04-12T09:33:38.270Z,1490.63
2018-04-12T09:34:38.303Z,1203.75
2018-04-12T09:35:38.284Z,1260.00
2018-04-12T09:36:38.274Z,691.88
2018-04-12T09:37:38.300Z,691.88
2018-04-12T09:38:38.267Z,838.13
2018-04-12T09:39:38.299Z,1102.50
2018-04-12T09:40:38.284Z,1063.13
2018-04-12T09:41:38.296Z,1192.50
2018-04-12T09:42:38.302Z,1175.63
2018-04-12T09:43:38.306Z,1170.00
2018-04-12T09:44:38.337Z,1254.38
2018-04-12T09:45:38.322Z,1186.88
2018-04-12T09:46:39.060Z,1023.75
2018-04-12T09:47:38.362Z,900.00
2018-04-12T09:48:38.353Z,742.50
2018-04-12T09:49:39.074Z,590.63
2018-04-12T09:50:38.334Z,579.38
2018-04-12T09:51:38.344Z,720.00
2018-04-12T09:52:38.404Z,663.75
2018-04-12T09:53:40.206Z,613.13
2018-04-12T09:54:38.419Z,669.38
2018-04-12T09:55:38.364Z,770.63
2018-04-12T09:56:38.388Z,804.38
2018-04-12T09:57:38.402Z,1119.38
2018-04-12T09:58:38.400Z,1147.50
2018-04-12T09:59:38.422Z,1012.50
2018-04-12T10:00:38.397Z,1231.88
2018-04-12T10:01:38.390Z,1271.25
2018-04-12T10:02:38.412Z,1192.50
2018-04-12T10:03:38.447Z,1198.13
2018-04-12T10:04:38.418Z,1248.75
2018-04-12T10:05:38.428Z,1203.75
2018-04-12T10:06:38.484Z,1254.38
2018-04-12T10:07:38.949Z,1293.75
2018-04-12T10:08:38.451Z,1366.88
2018-04-12T10:09:38.457Z,1440.00
2018-04-12T10:10:38.445Z,1468.13
2018-04-12T10:11:38.509Z,1496.25
2018-04-12T10:12:38.455Z,1636.88
2018-04-12T10:13:38.547Z,1811.25
2018-04-12T10:14:38.460Z,1861.88
2018-04-12T10:15:38.472Z,1766.25
2018-04-12T10:16:38.495Z,1434.38
2018-04-12T10:17:38.515Z,1164.38
2018-04-12T10:18:38.492Z,1029.38
2018-04-12T10:19:38.697Z,916.88
2018-04-12T10:20:38.501Z,838.13
2018-04-12T10:21:38.525Z,759.38
2018-04-12T10:22:38.532Z,984.38
2018-04-12T10:23:38.525Z,838.13
2018-04-12T10:24:38.536Z,821.25
2018-04-12T10:25:38.543Z,832.50
2018-04-12T10:26:38.549Z,1603.13
2018-04-12T10:27:38.569Z,1625.63
2018-04-12T10:28:38.727Z,1102.50
2018-04-12T10:29:38.568Z,1395.00
2018-04-12T10:30:39.085Z,1648.13
2018-04-12T10:31:38.585Z,1918.13
2018-04-12T10:32:38.589Z,2154.38
2018-04-12T10:33:38.607Z,2334.38
2018-04-12T10:34:38.635Z,2418.75
2018-04-12T10:35:38.612Z,2671.88
2018-04-12T10:36:38.619Z,2930.63
2018-04-12T10:37:38.657Z,2615.63
2018-04-12T10:38:38.695Z,3026.25
2018-04-12T10:39:38.644Z,2998.13
2018-04-12T10:40:38.730Z,1597.50
2018-04-12T10:41:38.730Z,1113.75
2018-04-12T10:42:38.684Z,1170.00
2018-04-12T10:43:38.698Z,1125.00
2018-04-12T10:44:38.695Z,1501.88
2018-04-12T10:45:38.718Z,2632.50
2018-04-12T10:46:38.728Z,2368.13
2018-04-12T10:47:38.816Z,2778.75
2018-04-12T10:48:38.827Z,2165.63
2018-04-12T10:49:38.797Z,2092.50
2018-04-12T10:50:38.762Z,1558.13
2018-04-12T10:51:38.778Z,1153.13
2018-04-12T10:52:38.781Z,1951.88
2018-04-12T10:53:38.795Z,1490.63
2018-04-12T10:54:38.781Z,1265.63
2018-04-12T10:55:38.809Z,1226.25
2018-04-12T10:56:38.807Z,1788.75
2018-04-12T10:57:38.820Z,1850.63
2018-04-12T10:58:38.819Z,1828.13
2018-04-12T10:59:38.829Z,1625.63
2018-04-12T11:00:39.598Z,2812.50
2018-04-12T11:01:38.855Z,3971.25
2018-04-12T11:02:38.870Z,1923.75
2018-04-12T11:03:38.881Z,3228.75
2018-04-12T11:04:38.896Z,3330.00
2018-04-12T11:05:38.896Z,2480.63
2018-04-12T11:06:38.899Z,3009.38
2018-04-12T11:07:38.966Z,2930.63
2018-04-12T11:08:38.990Z,3026.25
2018-04-12T11:09:38.977Z,3003.75
2018-04-12T11:10:38.939Z,2671.88
2018-04-12T11:11:39.013Z,978.75
2018-04-12T11:12:38.994Z,658.13
2018-04-12T11:13:39.042Z,523.13
2018-04-12T11:14:39.017Z,630.00
2018-04-12T11:15:39.028Z,528.75
2018-04-12T11:16:39.070Z,489.38
2018-04-12T11:17:39.057Z,450.00
2018-04-12T11:18:39.072Z,506.25
2018-04-12T11:19:39.042Z,523.13
2018-04-12T11:20:39.075Z,523.13
2018-04-12T11:21:39.065Z,540.00
2018-04-12T11:22:39.086Z,551.25
2018-04-12T11:23:39.117Z,534.38
2018-04-12T11:24:39.101Z,489.38
2018-04-12T11:25:39.117Z,523.13
2018-04-12T11:26:39.456Z,478.13
2018-04-12T11:27:39.123Z,500.63
2018-04-12T11:28:39.157Z,545.63
2018-04-12T11:29:39.122Z,556.88
2018-04-12T11:30:39.176Z,568.13
2018-04-12T11:31:39.183Z,579.38
2018-04-12T11:32:39.146Z,573.75
2018-04-12T11:33:39.147Z,545.63
2018-04-12T11:34:39.157Z,523.13
2018-04-12T11:35:39.160Z,500.63
2018-04-12T11:36:39.176Z,489.38
2018-04-12T11:37:39.168Z,466.88
2018-04-12T11:38:39.169Z,461.25
2018-04-12T11:39:40.121Z,461.25
2018-04-12T11:40:39.207Z,433.13
2018-04-12T11:41:39.217Z,399.38
2018-04-12T11:42:40.125Z,371.25
2018-04-12T11:43:39.206Z,365.63
2018-04-12T11:44:39.269Z,365.63
2018-04-12T11:45:39.239Z,371.25
2018-04-12T11:46:40.130Z,376.88
2018-04-12T11:47:39.275Z,348.75
2018-04-12T11:48:39.273Z,348.75
2018-04-12T11:49:39.318Z,365.63
2018-04-12T11:50:39.275Z,365.63
2018-04-12T11:51:39.306Z,365.63
2018-04-12T11:52:40.132Z,354.38
2018-04-12T11:53:39.264Z,354.38
2018-04-12T11:54:39.265Z,365.63
2018-04-12T11:55:39.327Z,399.38
2018-04-12T11:56:40.170Z,393.75
2018-04-12T11:57:39.450Z,399.38
2018-04-12T11:58:39.406Z,405.00
2018-04-12T11:59:39.343Z,421.88
2018-04-12T12:00:39.369Z,427.50
2018-04-12T12:01:39.398Z,433.13
2018-04-12T12:02:39.328Z,421.88
2018-04-12T12:03:39.329Z,444.38
2018-04-12T12:04:40.229Z,461.25
2018-04-12T12:05:39.329Z,483.75
2018-04-12T12:06:39.321Z,500.63
2018-04-12T12:07:39.358Z,478.13
2018-04-12T12:08:39.337Z,466.88
2018-04-12T12:09:41.213Z,450.00
2018-04-12T12:10:39.344Z,433.13
2018-04-12T12:11:39.347Z,433.13
2018-04-12T12:12:39.350Z,438.75
2018-04-12T12:13:40.180Z,450.00
2018-04-12T12:14:39.388Z,438.75
2018-04-12T12:15:39.373Z,416.25
2018-04-12T12:16:39.380Z,405.00
2018-04-12T12:17:39.380Z,393.75
2018-04-12T12:18:39.376Z,343.13
2018-04-12T12:19:39.396Z,286.88
2018-04-12T12:20:39.455Z,309.38
2018-04-12T12:21:39.390Z,360.00
2018-04-12T12:22:39.390Z,382.50
2018-04-12T12:23:39.415Z,360.00
2018-04-12T12:24:39.400Z,337.50
2018-04-12T12:25:39.411Z,331.88
2018-04-12T12:26:39.419Z,326.25
2018-04-12T12:27:39.437Z,348.75
2018-04-12T12:28:39.456Z,326.25
2018-04-12T12:29:39.427Z,348.75
2018-04-12T12:30:39.551Z,343.13
2018-04-12T12:31:39.450Z,365.63
2018-04-12T12:32:39.437Z,382.50
2018-04-12T12:33:39.458Z,371.25
2018-04-12T12:34:39.458Z,315.00
2018-04-12T12:35:39.454Z,309.38
2018-04-12T12:36:39.458Z,320.63
2018-04-12T12:37:39.474Z,331.88
2018-04-12T12:38:39.466Z,337.50
2018-04-12T12:39:39.481Z,343.13
2018-04-12T12:40:39.508Z,371.25
2018-04-12T12:41:39.493Z,348.75
2018-04-12T12:42:39.482Z,264.38
2018-04-12T12:43:39.509Z,236.25
2018-04-12T12:44:39.496Z,236.25
2018-04-12T12:45:39.508Z,247.50
2018-04-12T12:46:39.511Z,258.75
2018-04-12T12:47:39.519Z,253.13
2018-04-12T12:48:39.515Z,241.88
2018-04-12T12:49:39.518Z,241.88
2018-04-12T12:50:39.539Z,230.63
2018-04-12T12:51:39.644Z,219.38
2018-04-12T12:52:40.156Z,213.75
2018-04-12T12:53:40.154Z,219.38
2018-04-12T12:54:39.544Z,208.13
2018-04-12T12:55:39.546Z,202.50
2018-04-12T12:56:39.545Z,202.50
2018-04-12T12:57:39.582Z,208.13
2018-04-12T12:58:39.571Z,208.13
2018-04-12T12:59:39.555Z,202.50
2018-04-12T13:00:39.612Z,196.88
2018-04-12T13:01:39.601Z,196.88
2018-04-12T13:02:39.572Z,191.25
2018-04-12T13:03:39.596Z,185.63
2018-04-12T13:04:59.228Z,185.63
2018-04-12T13:05:40.188Z,180.00
2018-04-12T13:06:42.667Z,180.00
2018-04-12T13:07:40.169Z,180.00
2018-04-12T13:08:40.190Z,180.00
2018-04-12T13:09:40.176Z,180.00
2018-04-12T13:10:39.605Z,180.00
2018-04-12T13:11:39.609Z,185.63
2018-04-12T13:12:39.611Z,185.63
2018-04-12T13:13:39.621Z,185.63
2018-04-12T13:14:40.161Z,180.00
2018-04-12T13:15:39.617Z,185.63
2018-04-12T13:16:39.638Z,180.00
2018-04-12T13:17:39.638Z,174.38
2018-04-12T13:18:39.642Z,174.38
2018-04-12T13:19:39.633Z,174.38
2018-04-12T13:20:40.169Z,174.38
2018-04-12T13:21:39.979Z,174.38
2018-04-12T13:22:39.649Z,180.00
2018-04-12T13:23:39.653Z,180.00
2018-04-12T13:24:39.646Z,185.63
2018-04-12T13:25:39.656Z,185.63
2018-04-12T13:26:41.457Z,180.00
2018-04-12T13:27:39.696Z,180.00
2018-04-12T13:28:39.684Z,180.00
2018-04-12T13:29:39.678Z,180.00
2018-04-12T13:30:39.688Z,180.00
2018-04-12T13:31:39.699Z,180.00
2018-04-12T13:32:39.708Z,180.00
2018-04-12T13:33:39.712Z,180.00
2018-04-12T13:34:39.722Z,180.00
2018-04-12T13:35:44.207Z,185.63
2018-04-12T13:36:43.171Z,180.00
2018-04-12T13:37:41.178Z,174.38
2018-04-12T13:38:39.731Z,174.38
2018-04-12T13:39:39.712Z,174.38
2018-04-12T13:40:39.711Z,174.38
2018-04-12T13:41:39.775Z,168.75
2018-04-12T13:42:39.723Z,168.75
2018-04-12T13:43:39.728Z,168.75
2018-04-12T13:44:39.737Z,163.13
2018-04-12T13:45:39.746Z,163.13
2018-04-12T13:46:39.733Z,163.13
2018-04-12T13:47:39.745Z,163.13
2018-04-12T13:48:39.764Z,163.13
2018-04-12T13:49:39.772Z,168.75
2018-04-12T13:50:39.751Z,168.75
2018-04-12T13:51:39.754Z,168.75
2018-04-12T13:52:39.793Z,168.75
2018-04-12T13:53:39.764Z,168.75
2018-04-12T13:54:39.769Z,163.13
2018-04-12T13:55:39.784Z,168.75
2018-04-12T13:56:39.829Z,168.75
2018-04-12T13:57:39.786Z,174.38
2018-04-12T13:58:39.777Z,180.00
2018-04-12T13:59:39.785Z,180.00
2018-04-12T14:00:39.838Z,180.00
2018-04-12T14:01:39.800Z,174.38
2018-04-12T14:02:39.822Z,168.75
2018-04-12T14:03:39.793Z,163.13
2018-04-12T14:04:39.900Z,151.88
2018-04-12T14:05:39.800Z,151.88
2018-04-12T14:06:39.822Z,146.25
2018-04-12T14:07:39.812Z,146.25
2018-04-12T14:08:40.681Z,146.25
2018-04-12T14:09:39.839Z,140.63
2018-04-12T14:10:39.846Z,140.63
2018-04-12T14:11:40.682Z,151.88
2018-04-12T14:12:39.841Z,163.13
2018-04-12T14:13:39.836Z,168.75
2018-04-12T14:14:39.831Z,168.75
2018-04-12T14:15:39.852Z,174.38
2018-04-12T14:16:39.857Z,191.25
2018-04-12T14:17:39.851Z,202.50
2018-04-12T14:18:39.841Z,213.75
2018-04-12T14:19:39.850Z,230.63
2018-04-12T14:20:39.856Z,230.63
2018-04-12T14:21:39.862Z,230.63
2018-04-12T14:22:39.869Z,230.63
2018-04-12T14:23:39.871Z,225.00
2018-04-12T14:24:39.879Z,230.63
2018-04-12T14:25:39.910Z,230.63
2018-04-12T14:26:39.875Z,236.25
2018-04-12T14:27:39.874Z,236.25
2018-04-12T14:28:39.884Z,236.25
2018-04-12T14:29:39.958Z,241.88
2018-04-12T14:30:39.905Z,247.50
2018-04-12T14:31:40.014Z,241.88
2018-04-12T14:32:39.899Z,241.88
2018-04-12T14:33:39.936Z,241.88
2018-04-12T14:34:40.020Z,236.25
2018-04-12T14:35:39.964Z,241.88
2018-04-12T14:36:39.922Z,247.50
2018-04-12T14:37:39.925Z,247.50
2018-04-12T14:38:39.934Z,247.50
2018-04-12T14:39:39.946Z,247.50
2018-04-12T14:40:39.951Z,236.25
2018-04-12T14:41:40.696Z,230.63
2018-04-12T14:42:39.943Z,236.25
2018-04-12T14:43:39.945Z,236.25
2018-04-12T14:44:39.958Z,241.88
2018-04-12T14:45:39.954Z,241.88
2018-04-12T14:46:40.086Z,247.50
2018-04-12T14:47:40.010Z,247.50
2018-04-12T14:48:40.696Z,247.50
2018-04-12T14:49:39.963Z,241.88
2018-04-12T14:50:39.975Z,241.88
2018-04-12T14:51:39.979Z,230.63
2018-04-12T14:52:40.716Z,230.63
2018-04-12T14:53:39.988Z,230.63
2018-04-12T14:54:39.989Z,230.63
2018-04-12T14:55:39.992Z,236.25
2018-04-12T14:56:40.702Z,225.00
2018-04-12T14:57:40.029Z,213.75
2018-04-12T14:58:40.002Z,213.75
2018-04-12T14:59:40.025Z,213.75
2018-04-12T15:00:40.082Z,208.13
2018-04-12T15:01:40.019Z,208.13
2018-04-12T15:02:40.031Z,202.50
2018-04-12T15:03:40.024Z,208.13
2018-04-12T15:04:40.028Z,213.75
2018-04-12T15:05:40.025Z,225.00
2018-04-12T15:06:40.035Z,230.63
2018-04-12T15:07:40.057Z,236.25
2018-04-12T15:08:40.055Z,241.88
2018-04-12T15:09:40.718Z,241.88
2018-04-12T15:10:40.057Z,225.00
2018-04-12T15:11:40.042Z,236.25
2018-04-12T15:12:40.067Z,225.00
2018-04-12T15:13:40.077Z,219.38
2018-04-12T15:14:40.071Z,213.75
2018-04-12T15:15:40.118Z,213.75
2018-04-12T15:16:40.067Z,213.75
2018-04-12T15:17:40.077Z,213.75
2018-04-12T15:18:40.085Z,213.75
2018-04-12T15:19:40.078Z,208.13
2018-04-12T15:20:40.107Z,213.75
2018-04-12T15:21:40.091Z,202.50
2018-04-12T15:22:40.135Z,196.88
2018-04-12T15:23:40.101Z,191.25
2018-04-12T15:24:40.108Z,174.38
2018-04-12T15:25:40.154Z,163.13
2018-04-12T15:26:40.146Z,151.88
2018-04-12T15:27:40.128Z,140.63
2018-04-12T15:28:40.165Z,129.38
2018-04-12T15:29:40.123Z,123.75
2018-04-12T15:30:40.712Z,112.50
2018-04-12T15:31:40.126Z,106.88
2018-04-12T15:32:40.136Z,101.25
2018-04-12T15:33:40.139Z,95.63
2018-04-12T15:34:40.139Z,95.63
2018-04-12T15:35:40.153Z,95.63
2018-04-12T15:36:40.191Z,95.63
2018-04-12T15:37:40.176Z,95.63
2018-04-12T15:38:40.161Z,95.63
2018-04-12T15:39:40.166Z,95.63
2018-04-12T15:40:40.176Z,101.25
2018-04-12T15:41:40.174Z,101.25
2018-04-12T15:42:40.175Z,95.63
2018-04-12T15:43:40.174Z,95.63
2018-04-12T15:44:40.177Z,90.00
2018-04-12T15:45:40.243Z,84.38
2018-04-12T15:46:40.267Z,84.38
2018-04-12T15:47:40.201Z,84.38
2018-04-12T15:48:40.202Z,84.38
2018-04-12T15:49:40.227Z,84.38
2018-04-12T15:50:40.231Z,84.38
2018-04-12T15:51:40.209Z,78.75
2018-04-12T15:52:40.216Z,73.13
2018-04-12T15:53:40.223Z,73.13
2018-04-12T15:54:40.225Z,67.50
2018-04-12T15:55:40.222Z,67.50
2018-04-12T15:56:40.230Z,61.88
2018-04-12T15:57:40.296Z,61.88
2018-04-12T15:58:40.229Z,56.25
2018-04-12T15:59:40.236Z,56.25
2018-04-12T16:00:40.246Z,56.25
2018-04-12T16:01:40.244Z,50.63
2018-04-12T16:02:40.249Z,50.63
2018-04-12T16:03:40.322Z,50.63
2018-04-12T16:04:40.258Z,50.63
2018-04-12T16:05:40.268Z,56.25
2018-04-12T16:06:40.264Z,56.25
2018-04-12T16:07:41.684Z,56.25
2018-04-12T16:08:40.299Z,61.88
2018-04-12T16:09:40.280Z,61.88
2018-04-12T16:10:40.310Z,61.88
2018-04-12T16:11:40.304Z,56.25
2018-04-12T16:12:40.288Z,56.25
2018-04-12T16:13:40.297Z,50.63
2018-04-12T16:14:40.295Z,45.00
2018-04-12T16:15:40.306Z,45.00
2018-04-12T16:16:40.314Z,39.38
2018-04-12T16:17:40.302Z,39.38
2018-04-12T16:18:40.342Z,39.38
2018-04-12T16:19:40.317Z,33.75
2018-04-12T16:20:40.408Z,33.75
2018-04-12T16:21:40.328Z,33.75
2018-04-12T16:22:40.328Z,28.13
2018-04-12T16:23:40.333Z,28.13
2018-04-12T16:24:40.395Z,28.13
2018-04-12T16:25:40.371Z,28.13
2018-04-12T16:26:40.367Z,33.75
2018-04-12T16:29:00.508Z,33.75
2018-04-12T16:29:40.370Z,33.75
2018-04-12T16:30:40.355Z,33.75
2018-04-12T16:31:40.402Z,33.75
2018-04-12T16:32:40.361Z,33.75
2018-04-12T16:33:40.366Z,28.13
2018-04-12T16:34:40.371Z,22.50
2018-04-12T16:35:40.390Z,16.88
2018-04-12T16:36:40.377Z,16.88
2018-04-12T16:37:40.389Z,16.88
2018-04-12T16:38:40.402Z,16.88
2018-04-12T16:39:40.432Z,11.25
2018-04-12T16:40:40.396Z,11.25
2018-04-12T16:41:40.386Z,11.25
2018-04-12T16:42:40.392Z,11.25
2018-04-12T16:43:40.434Z,5.63
2018-04-12T16:44:40.420Z,5.63
2018-04-12T16:45:40.469Z,5.63
2018-04-12T16:46:40.459Z,5.63
2018-04-12T16:47:40.552Z,5.63
2018-04-12T16:48:40.488Z,5.63
2018-04-12T16:49:40.431Z,5.63
2018-04-12T16:50:40.420Z,5.63
2018-04-12T16:51:40.432Z,5.63
2018-04-12T16:52:40.432Z,5.63
2018-04-12T16:53:40.441Z,5.63
2018-04-12T16:54:40.440Z,0.00
2018-04-12T16:55:40.432Z,0.00
2018-04-12T16:56:40.445Z,0.00
2018-04-12T16:57:40.451Z,0.00
2018-04-12T16:58:40.452Z,0.00
2018-04-12T16:59:40.457Z,5.63
2018-04-12T17:00:40.538Z,5.63
2018-04-12T17:01:40.467Z,5.63
2018-04-12T17:02:40.464Z,5.63
2018-04-12T17:03:40.492Z,5.63
2018-04-12T17:04:40.463Z,11.25
2018-04-12T17:05:40.469Z,11.25
2018-04-12T17:06:40.474Z,16.88
2018-04-12T17:07:40.479Z,16.88
2018-04-12T17:08:40.596Z,22.50
2018-04-12T17:09:40.486Z,22.50
2018-04-12T17:10:40.496Z,22.50
2018-04-12T17:11:40.482Z,28.13
2018-04-12T17:12:40.501Z,28.13
2018-04-12T17:13:40.505Z,33.75
2018-04-12T17:14:40.509Z,33.75
2018-04-12T17:15:40.503Z,33.75
2018-04-12T17:16:40.511Z,33.75
2018-04-12T17:17:40.513Z,33.75
2018-04-12T17:18:40.548Z,33.75
2018-04-12T17:19:40.521Z,33.75
2018-04-12T17:20:40.529Z,33.75
2018-04-12T17:21:40.535Z,33.75
2018-04-12T17:22:40.534Z,28.13
2018-04-12T17:23:40.525Z,28.13
2018-04-12T17:24:40.631Z,28.13
2018-04-12T17:25:40.531Z,28.13
2018-04-12T17:26:40.554Z,28.13
2018-04-12T17:27:40.551Z,28.13
2018-04-12T17:28:40.573Z,28.13
2018-04-12T17:29:41.362Z,28.13
2018-04-12T17:30:40.554Z,28.13
2018-04-12T17:31:41.368Z,28.13
2018-04-12T17:32:40.621Z,28.13
2018-04-12T17:33:40.576Z,28.13
2018-04-12T17:34:40.577Z,28.13
2018-04-12T17:35:40.591Z,28.13
2018-04-12T17:36:40.574Z,28.13
2018-04-12T17:37:40.574Z,28.13
2018-04-12T17:38:40.577Z,22.50
2018-04-12T17:39:40.583Z,22.50
2018-04-12T17:40:40.579Z,22.50
2018-04-12T17:41:40.596Z,22.50
2018-04-12T17:42:40.598Z,22.50
2018-04-12T17:43:40.596Z,22.50
2018-04-12T17:44:40.593Z,16.88
2018-04-12T17:45:40.601Z,16.88
2018-04-12T17:46:40.608Z,16.88
2018-04-12T17:47:40.616Z,16.88
2018-04-12T17:48:40.613Z,11.25
2018-04-12T17:49:40.616Z,11.25
2018-04-12T17:50:40.642Z,11.25
2018-04-12T17:51:40.630Z,11.25
2018-04-12T17:52:40.616Z,11.25
2018-04-12T17:53:40.628Z,11.25
2018-04-12T17:54:40.649Z,11.25
2018-04-12T17:55:40.629Z,11.25
2018-04-12T17:56:40.635Z,11.25
2018-04-12T17:57:40.635Z,11.25
2018-04-12T17:58:40.642Z,11.25
2018-04-12T17:59:40.651Z,11.25
2018-04-12T18:00:40.673Z,11.25
2018-04-12T18:01:40.657Z,11.25
2018-04-12T18:02:40.670Z,11.25
2018-04-12T18:03:40.664Z,11.25
2018-04-12T18:04:40.662Z,11.25
2018-04-12T18:05:40.658Z,11.25
2018-04-12T18:06:40.666Z,5.63
2018-04-12T18:07:40.663Z,5.63
2018-04-12T18:08:40.733Z,5.63
2018-04-12T18:09:40.680Z,5.63
2018-04-12T18:10:40.675Z,5.63
2018-04-12T18:11:40.683Z,5.63
2018-04-12T18:12:40.683Z,5.63
2018-04-12T18:13:40.683Z,5.63
2018-04-12T18:14:40.691Z,5.63
2018-04-12T18:15:40.709Z,5.63
2018-04-12T18:16:40.697Z,5.63
2018-04-12T18:17:40.704Z,0.00
2018-04-12T18:18:40.715Z,0.00
2018-04-12T18:19:40.714Z,0.00
2018-04-12T18:20:40.721Z,0.00
2018-04-12T18:21:40.709Z,0.00
2018-04-12T18:22:40.728Z,0.00
2018-04-12T18:23:40.717Z,0.00
2018-04-12T18:24:40.713Z,0.00
2018-04-12T18:25:40.736Z,0.00
2018-04-12T18:26:40.720Z,0.00
2018-04-12T18:27:40.731Z,0.00
2018-04-12T18:28:40.743Z,0.00
2018-04-12T18:29:40.727Z,0.00
2018-04-12T18:30:40.735Z,0.00
2018-04-12T18:31:40.734Z,0.00
2018-04-12T18:32:40.754Z,0.00
2018-04-12T18:33:40.750Z,0.00
2018-04-12T18:34:40.741Z,0.00
2018-04-12T18:35:40.768Z,0.00
2018-04-12T18:36:40.778Z,0.00
2018-04-12T18:37:40.766Z,0.00
2018-04-12T18:38:40.760Z,0.00
2018-04-12T18:39:40.763Z,0.00
2018-04-12T18:40:40.762Z,0.00
2018-04-12T18:41:40.769Z,0.00
2018-04-12T18:42:40.838Z,0.00
2018-04-12T18:43:41.233Z,0.00
2018-04-12T18:44:40.783Z,0.00
2018-04-12T18:45:40.779Z,0.00
2018-04-12T18:46:40.801Z,0.00
2018-04-12T18:47:40.778Z,0.00
2018-04-12T18:48:40.798Z,0.00
2018-04-12T18:49:40.824Z,0.00
2018-04-12T18:50:40.798Z,0.00
2018-04-12T18:51:40.793Z,0.00
2018-04-12T18:52:40.817Z,0.00
2018-04-12T18:53:40.809Z,0.00
2018-04-12T18:54:40.874Z,0.00
2018-04-12T18:55:40.806Z,0.00
2018-04-12T18:56:40.808Z,0.00
2018-04-12T18:57:40.813Z,0.00
2018-04-12T18:58:40.815Z,0.00
2018-04-12T18:59:40.817Z,0.00
2018-04-12T19:00:40.846Z,0.00
2018-04-12T19:01:40.841Z,0.00
2018-04-12T19:02:40.829Z,0.00
2018-04-12T19:03:40.838Z,0.00
2018-04-12T19:04:40.834Z,0.00
2018-04-12T19:05:40.839Z,0.00
2018-04-12T19:06:40.858Z,0.00
2018-04-12T19:07:40.850Z,0.00
2018-04-12T19:08:40.863Z,0.00
2018-04-12T19:09:40.920Z,0.00
2018-04-12T19:10:40.854Z,0.00
2018-04-12T19:11:40.855Z,0.00
2018-04-12T19:12:40.855Z,0.00
2018-04-12T19:13:40.893Z,0.00
2018-04-12T19:14:40.864Z,0.00
2018-04-12T19:15:40.873Z,0.00
2018-04-12T19:16:40.909Z,0.00
2018-04-12T19:17:40.879Z,0.00
2018-04-12T19:18:40.876Z,0.00
2018-04-12T19:19:40.878Z,0.00
2018-04-12T19:20:40.883Z,0.00
2018-04-12T19:21:40.892Z,0.00
2018-04-12T19:22:40.895Z,0.00
2018-04-12T19:23:40.916Z,0.00
2018-04-12T19:24:40.884Z,0.00
2018-04-12T19:25:40.893Z,0.00
2018-04-12T19:26:40.900Z,0.00
2018-04-12T19:27:40.920Z,0.00
2018-04-12T19:28:40.899Z,0.00
2018-04-12T19:29:40.906Z,0.00
2018-04-12T19:30:41.404Z,0.00
2018-04-12T19:31:40.912Z,0.00
2018-04-12T19:32:40.925Z,0.00
2018-04-12T19:33:40.912Z,0.00
2018-04-12T19:34:41.409Z,0.00
2018-04-12T19:35:40.932Z,0.00
2018-04-12T19:36:40.995Z,0.00
2018-04-12T19:37:40.948Z,0.00
2018-04-12T19:38:40.942Z,0.00
2018-04-12T19:39:40.933Z,0.00
2018-04-12T19:40:40.958Z,0.00
2018-04-12T19:41:40.990Z,0.00
2018-04-12T19:42:40.945Z,0.00
2018-04-12T19:43:40.950Z,0.00
2018-04-12T19:44:40.951Z,0.00
2018-04-12T19:45:40.955Z,0.00
2018-04-12T19:46:40.959Z,0.00
2018-04-12T19:47:41.010Z,0.00
2018-04-12T19:48:40.953Z,0.00
2018-04-12T19:49:42.133Z,0.00
2018-04-12T19:50:41.014Z,0.00
2018-04-12T19:51:40.982Z,0.00
2018-04-12T19:52:40.982Z,0.00
2018-04-12T19:53:40.969Z,0.00
2018-04-12T19:54:40.972Z,0.00
2018-04-12T19:55:40.987Z,0.00
2018-04-12T19:56:40.987Z,0.00
2018-04-12T19:57:41.915Z,0.00
2018-04-12T19:58:40.990Z,0.00
2018-04-12T19:59:41.009Z,0.00
2018-04-12T20:00:41.034Z,0.00
2018-04-12T20:01:41.045Z,0.00
2018-04-12T20:02:41.000Z,0.00
2018-04-12T20:03:41.003Z,0.00
2018-04-12T20:04:41.011Z,0.00
2018-04-12T20:05:41.021Z,0.00
2018-04-12T20:06:41.022Z,0.00
2018-04-12T20:07:41.016Z,0.00
2018-04-12T20:08:41.026Z,0.00
2018-04-12T20:09:41.025Z,0.00
2018-04-12T20:10:41.027Z,0.00
2018-04-12T20:11:41.030Z,0.00
2018-04-12T20:12:41.038Z,0.00
2018-04-12T20:13:41.037Z,0.00
2018-04-12T20:14:41.034Z,0.00
2018-04-12T20:15:41.035Z,0.00
2018-04-12T20:16:41.044Z,0.00
2018-04-12T20:17:41.058Z,0.00
2018-04-12T20:18:41.927Z,0.00
2018-04-12T20:19:41.060Z,0.00
2018-04-12T20:20:41.941Z,0.00
2018-04-12T20:21:41.050Z,0.00
2018-04-12T20:22:41.128Z,0.00
2018-04-12T20:23:41.067Z,0.00
2018-04-12T20:24:41.096Z,0.00
2018-04-12T20:25:41.061Z,0.00
2018-04-12T20:26:41.056Z,0.00
2018-04-12T20:27:41.059Z,0.00
2018-04-12T20:28:41.080Z,0.00
2018-04-12T20:29:41.087Z,0.00
2018-04-12T20:30:41.097Z,0.00